createdAt,value
2023-01-27T00:00:41.324Z,68.50
2023-01-27T00:03:13.437Z,68.20
2023-01-27T00:05:43.236Z,67.80
2023-01-27T00:08:11.908Z,67.70
2023-01-27T00:10:40.448Z,67.30
2023-01-27T00:13:25.894Z,67.20
2023-01-27T00:15:54.198Z,67.00
2023-01-27T00:18:23.562Z,66.60
2023-01-27T00:21:11.014Z,66.10
2023-01-27T00:23:56.906Z,65.90
2023-01-27T00:26:25.397Z,65.80
2023-01-27T00:28:53.802Z,65.70
2023-01-27T00:31:40.472Z,65.90
2023-01-27T00:34:12.202Z,66.10
2023-01-27T00:36:43.322Z,65.90
2023-01-27T00:39:13.122Z,65.90
2023-01-27T00:41:42.168Z,65.80
2023-01-27T00:44:13.298Z,65.70
2023-01-27T00:46:42.598Z,65.60
2023-01-27T00:49:13.520Z,65.30
2023-01-27T00:51:43.848Z,65.40
2023-01-27T00:54:12.171Z,65.50
2023-01-27T00:56:40.570Z,65.90
2023-01-27T00:59:09.412Z,66.10
2023-01-27T01:01:37.987Z,67.20
2023-01-27T01:04:06.534Z,66.50
2023-01-27T01:06:35.016Z,66.70
2023-01-27T01:09:04.949Z,66.30
2023-01-27T01:11:33.315Z,66.30
2023-01-27T01:14:01.631Z,66.30
2023-01-27T01:16:30.016Z,66.20
2023-01-27T01:18:59.713Z,66.20
2023-01-27T01:21:28.016Z,66.40
2023-01-27T01:23:56.385Z,66.30
2023-01-27T01:26:26.151Z,66.20
2023-01-27T01:28:54.445Z,65.40
2023-01-27T01:31:23.007Z,65.00
2023-01-27T01:33:51.409Z,65.00
2023-01-27T01:36:21.512Z,65.30
2023-01-27T01:38:50.451Z,65.60
2023-01-27T01:41:21.880Z,65.80
2023-01-27T01:43:52.631Z,66.30
2023-01-27T01:46:21.752Z,65.60
2023-01-27T01:48:53.107Z,65.10
2023-01-27T01:51:25.149Z,65.40
2023-01-27T01:53:57.784Z,65.80
2023-01-27T01:56:31.966Z,66.00
2023-01-27T01:59:05.188Z,66.30
2023-01-27T02:01:33.823Z,66.90
2023-01-27T02:04:06.754Z,67.20
2023-01-27T02:06:40.993Z,67.40
2023-01-27T02:09:09.537Z,67.10
2023-01-27T02:11:37.887Z,66.80
2023-01-27T02:14:07.743Z,66.80
2023-01-27T02:16:36.354Z,67.10
2023-01-27T02:19:04.939Z,66.70
2023-01-27T02:21:33.289Z,67.00
2023-01-27T02:24:06.485Z,66.90
2023-01-27T02:26:39.861Z,66.80
2023-01-27T02:29:10.845Z,66.70
2023-01-27T02:31:39.644Z,66.60
2023-01-27T02:34:11.970Z,66.70
2023-01-27T02:36:43.570Z,66.90
2023-01-27T02:39:14.407Z,67.10
2023-01-27T02:41:46.082Z,67.20
2023-01-27T02:44:14.493Z,67.30
2023-01-27T02:46:42.965Z,67.60
2023-01-27T02:49:11.375Z,67.80
2023-01-27T02:51:40.589Z,67.10
2023-01-27T02:54:09.073Z,66.90
2023-01-27T02:56:37.377Z,66.80
2023-01-27T02:59:07.139Z,66.80
2023-01-27T03:01:35.624Z,66.70
2023-01-27T03:04:04.067Z,67.10
2023-01-27T03:06:32.393Z,67.40
2023-01-27T03:09:00.702Z,67.10
2023-01-27T03:11:46.582Z,66.90
2023-01-27T03:14:16.444Z,67.00
2023-01-27T03:17:02.046Z,67.00
2023-01-27T03:19:30.307Z,66.60
2023-01-27T03:22:01.934Z,66.90
2023-01-27T03:24:30.403Z,66.70
2023-01-27T03:26:58.876Z,66.20
2023-01-27T03:29:46.119Z,66.20
2023-01-27T03:32:14.642Z,66.70
2023-01-27T03:34:43.020Z,67.00
2023-01-27T03:37:28.543Z,67.00
2023-01-27T03:40:14.557Z,67.30
2023-01-27T03:43:00.297Z,67.30
2023-01-27T03:45:47.485Z,67.30
2023-01-27T03:48:18.556Z,67.60
2023-01-27T03:50:53.503Z,67.60
2023-01-27T03:53:22.027Z,67.40
2023-01-27T03:55:50.445Z,67.50
2023-01-27T03:58:23.564Z,67.50
2023-01-27T04:00:55.369Z,67.80
2023-01-27T04:03:43.475Z,67.70
2023-01-27T04:06:31.368Z,67.50
2023-01-27T04:09:00.940Z,67.10
2023-01-27T04:11:57.866Z,67.10
2023-01-27T04:14:28.535Z,67.50
2023-01-27T04:17:03.201Z,67.60
2023-01-27T04:19:31.722Z,66.90
2023-01-27T04:22:01.183Z,66.40
2023-01-27T04:24:29.748Z,66.50
2023-01-27T04:26:59.584Z,66.70
2023-01-27T04:29:29.644Z,66.90
2023-01-27T04:31:59.736Z,66.70
2023-01-27T04:34:28.886Z,66.90
2023-01-27T04:36:58.054Z,67.20
2023-01-27T04:39:26.768Z,66.80
2023-01-27T04:41:55.054Z,66.70
2023-01-27T04:44:23.874Z,66.80
2023-01-27T04:46:52.347Z,66.90
2023-01-27T04:49:22.452Z,67.30
2023-01-27T04:51:51.271Z,67.10
2023-01-27T04:54:19.605Z,66.90
2023-01-27T04:56:57.703Z,66.70
2023-01-27T04:59:26.093Z,67.00
2023-01-27T05:01:54.694Z,67.20
2023-01-27T05:04:26.456Z,66.90
2023-01-27T05:06:55.362Z,66.90
2023-01-27T05:09:23.870Z,67.00
2023-01-27T05:11:52.216Z,67.10
2023-01-27T05:14:23.568Z,67.20
2023-01-27T05:16:52.049Z,66.70
2023-01-27T05:19:20.462Z,66.50
2023-01-27T05:21:50.154Z,66.30
2023-01-27T05:24:18.562Z,66.50
2023-01-27T05:26:46.949Z,66.60
2023-01-27T05:29:15.360Z,66.50
2023-01-27T05:31:43.715Z,66.30
2023-01-27T05:34:12.219Z,66.30
2023-01-27T05:36:40.484Z,66.30
2023-01-27T05:39:12.595Z,66.40
2023-01-27T05:41:41.025Z,66.30
2023-01-27T05:44:12.418Z,66.30
2023-01-27T05:46:42.245Z,66.10
2023-01-27T05:49:10.615Z,65.80
2023-01-27T05:51:40.809Z,65.80
2023-01-27T05:54:10.927Z,65.60
2023-01-27T05:56:39.370Z,65.90
2023-01-27T05:59:08.307Z,66.00
2023-01-27T06:01:37.619Z,66.00
2023-01-27T06:04:06.475Z,65.50
2023-01-27T06:06:35.422Z,65.50
2023-01-27T06:09:03.920Z,65.00
2023-01-27T06:11:34.013Z,64.80
2023-01-27T06:14:02.335Z,65.00
2023-01-27T06:16:30.868Z,65.20
2023-01-27T06:18:59.876Z,65.00
2023-01-27T06:21:28.424Z,65.30
2023-01-27T06:23:58.318Z,65.40
2023-01-27T06:26:26.932Z,65.30
2023-01-27T06:28:57.875Z,64.80
2023-01-27T06:31:27.649Z,65.00
2023-01-27T06:33:56.303Z,65.30
2023-01-27T06:36:24.930Z,65.40
2023-01-27T06:38:53.665Z,65.60
2023-01-27T06:41:22.061Z,65.70
2023-01-27T06:43:50.353Z,65.80
2023-01-27T06:46:20.107Z,65.60
2023-01-27T06:48:48.434Z,65.80
2023-01-27T06:51:17.631Z,65.90
2023-01-27T06:53:46.108Z,66.90
2023-01-27T06:56:16.377Z,66.20
2023-01-27T06:58:45.512Z,66.00
2023-01-27T07:01:14.152Z,65.70
2023-01-27T07:03:45.141Z,65.50
2023-01-27T07:06:15.255Z,65.40
2023-01-27T07:08:45.904Z,65.40
2023-01-27T07:11:14.372Z,65.10
2023-01-27T07:13:42.969Z,64.70
2023-01-27T07:16:11.332Z,64.90
2023-01-27T07:18:39.726Z,64.70
2023-01-27T07:21:09.608Z,64.40
2023-01-27T07:23:37.934Z,64.20
2023-01-27T07:26:15.853Z,64.20
2023-01-27T07:28:52.977Z,63.90
2023-01-27T07:31:21.408Z,63.80
2023-01-27T07:33:50.011Z,64.00
2023-01-27T07:36:22.346Z,63.90
2023-01-27T07:38:51.621Z,64.30
2023-01-27T07:41:19.971Z,64.30
2023-01-27T07:43:51.443Z,64.30
2023-01-27T07:46:20.560Z,64.60
2023-01-27T07:48:48.883Z,64.70
2023-01-27T07:51:17.481Z,64.60
2023-01-27T07:53:47.392Z,64.80
2023-01-27T07:56:15.733Z,64.50
2023-01-27T07:58:44.457Z,64.10
2023-01-27T08:01:14.423Z,64.30
2023-01-27T08:03:42.970Z,64.80
2023-01-27T08:06:13.123Z,64.20
2023-01-27T08:08:41.849Z,64.20
2023-01-27T08:11:14.420Z,63.90
2023-01-27T08:13:43.417Z,64.20
2023-01-27T08:16:15.194Z,63.90
2023-01-27T08:18:44.161Z,64.50
2023-01-27T08:21:14.041Z,64.50
2023-01-27T08:23:42.359Z,64.50
2023-01-27T08:26:12.104Z,63.70
2023-01-27T08:28:41.163Z,63.20
2023-01-27T08:31:11.914Z,63.20
2023-01-27T08:33:41.179Z,63.30
2023-01-27T08:36:11.431Z,63.90
2023-01-27T08:38:40.216Z,64.00
2023-01-27T08:41:10.396Z,63.90
2023-01-27T08:43:40.585Z,63.80
2023-01-27T08:46:09.552Z,63.60
2023-01-27T08:48:39.295Z,64.00
2023-01-27T08:51:09.606Z,64.60
2023-01-27T08:53:38.191Z,64.70
2023-01-27T08:56:09.172Z,63.70
2023-01-27T08:58:39.148Z,63.30
2023-01-27T09:01:08.903Z,63.60
2023-01-27T09:03:38.129Z,63.70
2023-01-27T09:06:09.081Z,63.40
2023-01-27T09:08:37.626Z,63.30
2023-01-27T09:11:13.493Z,62.60
2023-01-27T09:13:43.665Z,62.30
2023-01-27T09:16:12.040Z,62.20
2023-01-27T09:18:42.554Z,62.20
2023-01-27T09:21:11.981Z,62.50
2023-01-27T09:23:40.292Z,62.40
2023-01-27T09:34:22.838Z,61.80
2023-01-27T09:36:55.007Z,62.30
2023-01-27T09:39:24.175Z,62.20
2023-01-27T09:42:17.641Z,61.90
2023-01-27T09:45:31.334Z,61.90
2023-01-27T09:48:11.287Z,61.30
2023-01-27T09:50:47.307Z,60.80
2023-01-27T09:54:08.452Z,60.60
2023-01-27T09:56:53.380Z,60.90
2023-01-27T09:59:35.523Z,60.80
2023-01-27T10:02:18.154Z,60.80
2023-01-27T10:05:13.617Z,60.50
2023-01-27T10:08:19.367Z,60.50
2023-01-27T10:11:03.311Z,60.50
2023-01-27T10:13:43.141Z,60.00
2023-01-27T10:16:47.466Z,60.40
2023-01-27T10:19:51.777Z,60.80
2023-01-27T10:22:26.179Z,60.90
2023-01-27T10:25:09.038Z,60.50
2023-01-27T10:27:38.580Z,60.80
2023-01-27T10:30:15.214Z,60.40
2023-01-27T10:32:46.442Z,60.10
2023-01-27T10:35:21.231Z,60.60
2023-01-27T10:38:01.399Z,60.00
2023-01-27T10:40:41.673Z,59.90
2023-01-27T10:43:16.940Z,59.80
2023-01-27T10:45:55.143Z,59.80
2023-01-27T10:51:57.800Z,61.00
2023-01-27T10:54:32.517Z,60.00
2023-01-27T10:57:07.425Z,59.90
2023-01-27T10:59:46.371Z,60.00
2023-01-27T11:02:25.771Z,60.60
2023-01-27T11:05:00.057Z,60.00
2023-01-27T11:07:28.997Z,60.00
2023-01-27T11:09:59.331Z,60.10
2023-01-27T11:12:32.669Z,58.80
2023-01-27T11:15:03.244Z,59.00
2023-01-27T11:17:36.109Z,59.60
2023-01-27T11:20:14.811Z,60.10
2023-01-27T11:22:52.368Z,59.80
2023-01-27T11:25:28.362Z,59.40
2023-01-27T11:28:11.659Z,58.60
2023-01-27T11:30:48.198Z,57.90
2023-01-27T11:33:24.420Z,58.30
2023-01-27T11:35:54.556Z,58.70
2023-01-27T11:38:24.687Z,58.80
2023-01-27T11:40:54.496Z,58.50
2023-01-27T11:43:27.701Z,58.70
2023-01-27T11:46:02.007Z,58.40
2023-01-27T11:48:41.209Z,58.30
2023-01-27T11:51:21.720Z,58.60
2023-01-27T11:53:56.536Z,59.10
2023-01-27T11:56:26.891Z,59.70
2023-01-27T11:59:02.755Z,59.20
2023-01-27T12:01:44.874Z,59.10
2023-01-27T12:04:19.459Z,59.60
2023-01-27T12:06:51.795Z,59.10
2023-01-27T12:09:34.300Z,59.40
2023-01-27T12:12:21.112Z,59.70
2023-01-27T12:14:54.197Z,59.20
2023-01-27T12:17:33.508Z,59.10
2023-01-27T12:20:07.291Z,58.80
2023-01-27T12:22:40.064Z,58.60
2023-01-27T12:25:16.644Z,58.10
2023-01-27T12:27:53.093Z,58.10
2023-01-27T12:30:25.359Z,58.20
2023-01-27T12:32:54.592Z,58.60
2023-01-27T12:35:25.299Z,59.00
2023-01-27T12:37:59.772Z,59.20
2023-01-27T12:40:29.507Z,59.10
2023-01-27T12:43:15.678Z,59.00
2023-01-27T12:45:45.979Z,58.80
2023-01-27T12:48:22.334Z,58.90
2023-01-27T12:51:05.096Z,59.30
2023-01-27T12:53:33.445Z,59.80
2023-01-27T12:56:06.509Z,59.40
2023-01-27T12:58:38.214Z,58.90
2023-01-27T13:01:21.721Z,59.20
2023-01-27T13:03:53.964Z,58.80
2023-01-27T13:06:32.099Z,58.60
2023-01-27T13:09:01.613Z,58.50
2023-01-27T13:11:38.564Z,58.90
2023-01-27T13:14:16.942Z,59.20
2023-01-27T13:16:54.036Z,59.40
2023-01-27T13:19:27.361Z,60.10
2023-01-27T13:21:56.504Z,59.90
2023-01-27T13:24:33.102Z,60.20
2023-01-27T13:27:03.854Z,59.50
2023-01-27T13:29:36.448Z,59.00
2023-01-27T13:32:12.817Z,59.10
2023-01-27T13:34:45.551Z,59.40
2023-01-27T13:37:18.389Z,59.30
2023-01-27T13:39:57.695Z,59.50
2023-01-27T13:42:30.139Z,60.10
2023-01-27T13:45:02.651Z,60.20
2023-01-27T13:47:40.280Z,60.60
2023-01-27T13:50:20.039Z,60.80
2023-01-27T13:52:52.192Z,61.00
2023-01-27T13:55:26.697Z,61.70
2023-01-27T13:58:05.639Z,61.50
2023-01-27T14:00:39.635Z,61.00
2023-01-27T14:03:47.261Z,61.10
2023-01-27T14:06:29.142Z,60.90
2023-01-27T14:09:13.156Z,60.40
2023-01-27T14:11:48.073Z,60.60
2023-01-27T14:14:49.018Z,60.80
2023-01-27T14:17:34.926Z,61.00
2023-01-27T14:20:30.379Z,61.40
2023-01-27T14:23:18.946Z,61.50
2023-01-27T14:25:58.320Z,62.20
2023-01-27T14:28:33.362Z,62.60
2023-01-27T14:31:07.941Z,62.60
2023-01-27T14:33:51.338Z,62.40
2023-01-27T14:36:24.647Z,63.00
2023-01-27T14:39:03.021Z,63.10
2023-01-27T14:41:40.473Z,63.00
2023-01-27T14:44:20.361Z,62.60
2023-01-27T14:47:01.211Z,62.60
2023-01-27T14:49:44.680Z,62.40
2023-01-27T14:52:26.539Z,62.90
2023-01-27T14:55:09.574Z,63.70
2023-01-27T14:57:47.162Z,63.90
2023-01-27T15:00:30.660Z,64.20
2023-01-27T15:03:17.024Z,64.40
2023-01-27T15:05:54.173Z,63.90
2023-01-27T15:08:32.519Z,63.20
2023-01-27T15:11:23.642Z,63.00
2023-01-27T15:14:09.744Z,63.20
2023-01-27T15:16:58.989Z,63.40
2023-01-27T15:19:49.002Z,63.60
2023-01-27T15:22:55.190Z,63.50
2023-01-27T15:25:33.507Z,63.50
2023-01-27T15:28:03.082Z,63.20
2023-01-27T15:30:34.755Z,63.00
2023-01-27T15:33:03.355Z,63.00
2023-01-27T15:35:38.061Z,62.80
2023-01-27T15:38:34.536Z,63.00
2023-01-27T15:41:08.583Z,63.20
2023-01-27T15:43:41.287Z,63.20
2023-01-27T15:46:28.923Z,63.20
2023-01-27T15:49:00.713Z,63.60
2023-01-27T15:51:31.145Z,64.40
2023-01-27T15:54:01.381Z,65.00
2023-01-27T15:56:52.335Z,64.40
2023-01-27T15:59:25.118Z,64.30
2023-01-27T16:02:04.054Z,64.10
2023-01-27T16:04:33.442Z,64.70
2023-01-27T16:07:04.956Z,65.30
2023-01-27T16:09:40.343Z,65.60
2023-01-27T16:12:32.889Z,65.70
2023-01-27T16:15:39.086Z,65.70
2023-01-27T16:18:28.829Z,65.60
2023-01-27T16:21:06.592Z,66.40
2023-01-27T16:23:45.971Z,65.40
2023-01-27T16:26:30.278Z,65.50
2023-01-27T16:29:17.826Z,65.90
2023-01-27T16:31:52.502Z,64.70
2023-01-27T16:34:27.132Z,64.60
2023-01-27T16:37:04.645Z,64.60
2023-01-27T16:39:40.389Z,64.80
2023-01-27T16:42:15.351Z,65.40
2023-01-27T16:44:47.205Z,66.00
2023-01-27T16:47:28.063Z,66.50
2023-01-27T16:49:56.984Z,66.70
2023-01-27T16:52:41.173Z,67.10
2023-01-27T16:55:21.974Z,67.30
2023-01-27T16:57:51.957Z,67.40
2023-01-27T17:00:24.700Z,67.70
2023-01-27T17:02:54.997Z,67.90
2023-01-27T17:05:24.908Z,68.00
2023-01-27T17:08:18.094Z,68.10
2023-01-27T17:10:51.438Z,68.00
2023-01-27T17:13:31.931Z,68.10
2023-01-27T17:16:05.541Z,68.20
2023-01-27T17:18:51.711Z,68.10
2023-01-27T17:21:30.887Z,68.40
2023-01-27T17:24:05.519Z,68.40
2023-01-27T17:26:36.907Z,68.50
2023-01-27T17:29:05.755Z,68.40
2023-01-27T17:31:39.583Z,68.40
2023-01-27T17:34:14.204Z,68.70
2023-01-27T17:37:16.168Z,68.50
2023-01-27T17:39:45.285Z,68.60
2023-01-27T17:42:18.898Z,68.60
2023-01-27T17:44:48.798Z,68.80
2023-01-27T17:47:21.134Z,68.70
2023-01-27T17:49:50.692Z,68.80
2023-01-27T17:52:22.326Z,68.50
2023-01-27T17:54:51.594Z,68.30
2023-01-27T17:57:23.078Z,68.20
2023-01-27T17:59:59.168Z,68.30
2023-01-27T18:02:32.369Z,68.20
2023-01-27T18:05:04.992Z,68.50
2023-01-27T18:07:35.077Z,68.60
2023-01-27T18:10:23.233Z,68.40
2023-01-27T18:12:51.698Z,68.40
2023-01-27T18:15:48.590Z,68.40
2023-01-27T18:18:24.660Z,68.60
2023-01-27T18:21:05.452Z,68.60
2023-01-27T18:23:36.598Z,68.60
2023-01-27T18:26:07.663Z,68.70
2023-01-27T18:28:38.805Z,68.90
2023-01-27T18:31:16.145Z,69.00
2023-01-27T18:33:46.855Z,68.90
2023-01-27T18:36:24.171Z,68.90
2023-01-27T18:38:53.368Z,68.90
2023-01-27T18:41:26.006Z,68.70
2023-01-27T18:43:54.687Z,68.60
2023-01-27T18:46:23.313Z,68.60
2023-01-27T18:48:53.473Z,68.40
2023-01-27T18:51:21.784Z,68.40
2023-01-27T18:53:50.198Z,68.40
2023-01-27T18:56:18.562Z,68.30
2023-01-27T18:58:46.947Z,68.50
2023-01-27T19:01:22.198Z,68.40
2023-01-27T19:03:53.920Z,68.40
2023-01-27T19:06:22.259Z,68.20
2023-01-27T19:08:52.191Z,68.30
2023-01-27T19:11:20.501Z,68.40
2023-01-27T19:13:49.248Z,68.30
2023-01-27T19:16:19.476Z,68.20
2023-01-27T19:18:48.074Z,68.20
2023-01-27T19:21:18.155Z,68.10
2023-01-27T19:23:49.752Z,68.00
2023-01-27T19:26:20.110Z,68.00
2023-01-27T19:28:50.223Z,67.90
2023-01-27T19:31:18.666Z,68.10
2023-01-27T19:33:47.656Z,68.10
2023-01-27T19:36:24.215Z,68.20
2023-01-27T19:38:57.277Z,68.30
2023-01-27T19:41:26.166Z,68.20
2023-01-27T19:43:54.869Z,67.90
2023-01-27T19:46:24.655Z,68.00
2023-01-27T19:48:53.207Z,68.00
2023-01-27T19:51:24.263Z,67.90
2023-01-27T19:53:53.023Z,67.60
2023-01-27T19:56:23.618Z,67.60
2023-01-27T19:58:54.238Z,67.70
2023-01-27T20:01:24.698Z,68.00
2023-01-27T20:03:54.762Z,67.80
2023-01-27T20:06:26.470Z,67.80
2023-01-27T20:08:56.577Z,67.90
2023-01-27T20:11:32.721Z,67.80
2023-01-27T20:14:02.897Z,67.80
2023-01-27T20:16:31.873Z,67.70
2023-01-27T20:19:00.733Z,67.70
2023-01-27T20:21:31.617Z,67.70
2023-01-27T20:24:00.324Z,67.60
2023-01-27T20:26:31.387Z,67.80
2023-01-27T20:29:05.287Z,67.90
2023-01-27T20:31:33.741Z,67.60
2023-01-27T20:34:02.127Z,67.10
2023-01-27T20:36:32.197Z,67.00
2023-01-27T20:39:00.545Z,67.00
2023-01-27T20:41:29.436Z,67.10
2023-01-27T20:44:00.774Z,67.30
2023-01-27T20:46:30.404Z,67.50
2023-01-27T20:49:00.884Z,67.80
2023-01-27T20:51:32.552Z,67.80
2023-01-27T20:54:03.163Z,67.70
2023-01-27T20:56:31.628Z,67.70
2023-01-27T20:59:01.886Z,67.70
2023-01-27T21:01:30.633Z,67.70
2023-01-27T21:03:58.975Z,67.90
2023-01-27T21:06:27.345Z,68.20
2023-01-27T21:08:56.033Z,68.20
2023-01-27T21:11:25.855Z,68.40
2023-01-27T21:13:54.218Z,68.60
2023-01-27T21:16:22.577Z,68.70
2023-01-27T21:18:51.554Z,69.00
2023-01-27T21:21:27.048Z,69.10
2023-01-27T21:23:55.794Z,68.90
2023-01-27T21:26:26.185Z,69.10
2023-01-27T21:28:54.841Z,69.00
2023-01-27T21:31:24.546Z,69.00
2023-01-27T21:33:53.055Z,69.10
2023-01-27T21:36:21.665Z,69.10
2023-01-27T21:38:53.798Z,69.00
2023-01-27T21:41:39.968Z,68.80
2023-01-27T21:44:32.517Z,68.70
2023-01-27T21:47:00.907Z,68.60
2023-01-27T21:49:29.436Z,68.60
2023-01-27T21:51:57.856Z,68.60
2023-01-27T21:54:26.209Z,68.60
2023-01-27T21:56:55.882Z,68.40
2023-01-27T21:59:24.318Z,68.40
2023-01-27T22:01:55.360Z,68.20
2023-01-27T22:04:23.791Z,68.10
2023-01-27T22:06:52.150Z,67.80
2023-01-27T22:09:20.603Z,67.70
2023-01-27T22:11:48.927Z,67.60
2023-01-27T22:14:18.721Z,67.50
2023-01-27T22:16:47.079Z,67.40
2023-01-27T22:19:15.469Z,67.40
2023-01-27T22:21:44.357Z,67.50
2023-01-27T22:24:12.828Z,67.60
2023-01-27T22:26:41.344Z,67.60
2023-01-27T22:29:09.696Z,67.70
2023-01-27T22:31:40.330Z,67.70
2023-01-27T22:34:09.130Z,67.90
2023-01-27T22:36:37.876Z,68.10
2023-01-27T22:39:06.292Z,68.20
2023-01-27T22:41:35.052Z,68.50
2023-01-27T22:44:03.749Z,68.50
2023-01-27T22:46:32.087Z,68.70
2023-01-27T22:49:01.957Z,69.30
2023-01-27T22:51:30.311Z,68.80
2023-01-27T22:53:58.627Z,68.70
2023-01-27T22:56:27.100Z,69.00
2023-01-27T22:58:55.416Z,69.30
2023-01-27T23:01:23.856Z,69.50
2023-01-27T23:03:52.688Z,69.80
2023-01-27T23:06:22.906Z,69.90
2023-01-27T23:08:51.261Z,69.90
2023-01-27T23:11:21.614Z,69.90
2023-01-27T23:13:50.079Z,69.90
2023-01-27T23:16:18.459Z,70.80
2023-01-27T23:18:46.809Z,70.00
2023-01-27T23:21:15.757Z,70.10
2023-01-27T23:23:45.559Z,70.00
2023-01-27T23:26:14.734Z,70.10
2023-01-27T23:28:43.315Z,69.90
2023-01-27T23:31:13.831Z,69.70
2023-01-27T23:33:43.758Z,69.80
2023-01-27T23:36:14.006Z,70.20
2023-01-27T23:38:42.417Z,70.40
2023-01-27T23:41:18.387Z,70.40
2023-01-27T23:43:47.221Z,70.60
2023-01-27T23:46:15.635Z,70.90
2023-01-27T23:48:43.995Z,71.00
2023-01-27T23:51:14.883Z,71.10
2023-01-27T23:53:43.256Z,71.10
2023-01-27T23:56:15.835Z,71.10
2023-01-27T23:58:44.764Z,71.40
